Main page
METAR-TAF:

METAR-TAF

Airports :

Alta Airport

Alta, Norway

latitude: 69-59N, longitude: 023-22E, elevation: 0 m

Current weather observation

The report was made 54 minutes ago, at 01:50 UTC
Wind 6 kt from the South/Southwest
Temperature -5°C
Humidity 93%
Pressure 981 hPa
Visibility 10 km or more
light snow

METAR: ENAT 080150Z AUTO 21006KT 9999 -SN OVC024/// M05/M06 Q0981 RMK WIND 700FT 34008KT

Time: 03:44 (02:44 UTC)

Forecast

The report was made 6 hours and 44 minutes ago, at 20:00 UTC
Forecast valid from 07 at 21 UTC to 07 at 24 UTC
Wind 5 kt from variable directions
Visibility 10 km or more
Scattered clouds at a height of 1500 ft
Broken clouds at a height of 2000 ft
light snow

TAF: ENAT 072000Z 0721/0724 VRB05KT 9999 -SN SCT015 BKN020

Weather observations and forecasts of more than 4000 airports (METAR and TAF reports).

The available stations are represented by yellow and red dots on the map.

Hover mouse over dot to see the name of the station.

Then click to see weather observations and forecasts.

To change the map : click on the green buttons with a black cross to zoom in, on the green button with a dash to zoom out, or on the green arrows for adjacent maps.


METAR-TAF: